createdAt,value
2022-12-11T00:00:39.591Z,16.1
2022-12-11T00:05:33.873Z,16
2022-12-11T00:10:27.682Z,16
2022-12-11T00:15:22.426Z,16
2022-12-11T00:20:17.155Z,16
2022-12-11T00:25:12.104Z,15.9
2022-12-11T00:30:06.100Z,16
2022-12-11T00:35:00.814Z,15.9
2022-12-11T00:39:54.743Z,15.9
2022-12-11T00:44:49.482Z,15.8
2022-12-11T00:49:48.146Z,15.8
2022-12-11T00:54:38.644Z,15.6
2022-12-11T00:59:35.541Z,15.7
2022-12-11T01:04:30.097Z,15.7
2022-12-11T01:09:24.887Z,15.6
2022-12-11T01:14:19.585Z,15.6
2022-12-11T01:19:14.188Z,15.6
2022-12-11T01:24:08.703Z,15.5
2022-12-11T01:29:03.318Z,15.5
2022-12-11T01:33:57.734Z,15.5
2022-12-11T01:38:52.307Z,15.4
2022-12-11T01:43:46.694Z,15.5
2022-12-11T01:48:42.418Z,15.4
2022-12-11T01:53:35.718Z,15.4
2022-12-11T01:58:30.432Z,15.4
2022-12-11T02:03:24.761Z,15.3
2022-12-11T02:08:19.319Z,15.4
2022-12-11T02:13:13.973Z,15.4
2022-12-11T02:18:08.678Z,15.3
2022-12-11T02:23:03.150Z,15.3
2022-12-11T02:27:57.778Z,15.2
2022-12-11T02:32:52.318Z,15.2
2022-12-11T02:37:46.951Z,15.2
2022-12-11T02:42:41.630Z,15.1
2022-12-11T02:47:36.209Z,15.2
2022-12-11T02:52:30.756Z,15.1
2022-12-11T02:57:24.738Z,15.1
2022-12-11T03:02:19.494Z,15.1
2022-12-11T03:07:14.014Z,15.1
2022-12-11T03:12:08.421Z,15.1
2022-12-11T03:17:02.871Z,15
2022-12-11T03:21:57.780Z,15
2022-12-11T03:26:56.264Z,14.9
2022-12-11T03:31:46.906Z,14.9
2022-12-11T03:36:41.574Z,14.8
2022-12-11T03:41:36.153Z,14.9
2022-12-11T03:46:30.933Z,14.9
2022-12-11T03:51:25.413Z,14.9
2022-12-11T03:56:20.478Z,14.8
2022-12-11T04:01:14.839Z,14.8
2022-12-11T04:06:09.199Z,14.8
2022-12-11T04:11:03.604Z,14.7
2022-12-11T04:15:58.297Z,14.8
2022-12-11T04:20:52.725Z,14.7
2022-12-11T04:25:47.439Z,14.7
2022-12-11T04:30:42.262Z,14.7
2022-12-11T04:35:36.695Z,14.7
2022-12-11T04:40:31.518Z,14.7
2022-12-11T04:45:25.343Z,14.7
2022-12-11T04:50:19.864Z,14.6
2022-12-11T04:55:14.630Z,14.6
2022-12-11T05:00:09.212Z,14.6
2022-12-11T05:05:03.943Z,14.6
2022-12-11T05:09:58.699Z,14.7
2022-12-11T05:14:53.944Z,15
2022-12-11T05:19:48.872Z,15.3
2022-12-11T05:24:44.086Z,15.7
2022-12-11T05:29:39.336Z,16.1
2022-12-11T05:34:34.046Z,16.4
2022-12-11T05:39:29.222Z,16.9
2022-12-11T05:44:24.216Z,17.4
2022-12-11T05:49:20.103Z,18
2022-12-11T05:54:14.715Z,18.5
2022-12-11T05:59:09.777Z,19
2022-12-11T06:04:04.841Z,19.5
2022-12-11T06:09:00.003Z,19.8
2022-12-11T06:13:54.813Z,19.9
2022-12-11T06:18:49.654Z,20.1
2022-12-11T06:23:44.129Z,20.1
2022-12-11T06:28:38.696Z,20
2022-12-11T06:33:33.313Z,20
2022-12-11T06:38:28.002Z,20
2022-12-11T06:43:21.986Z,19.9
2022-12-11T06:48:16.702Z,19.8
2022-12-11T06:53:11.522Z,19.6
2022-12-11T06:58:06.019Z,19.7
2022-12-11T07:03:00.681Z,19.5
2022-12-11T07:07:55.558Z,19.5
2022-12-11T07:12:50.144Z,19.5
2022-12-11T07:17:44.908Z,19.5
2022-12-11T07:22:44.761Z,19.3
2022-12-11T07:27:34.563Z,19.2
2022-12-11T07:32:29.411Z,19.1
2022-12-11T07:37:23.986Z,19
2022-12-11T07:42:18.996Z,18.9
2022-12-11T07:47:13.501Z,18.8
2022-12-11T07:52:08.325Z,18.9
2022-12-11T07:57:03.112Z,19.1
2022-12-11T08:01:58.259Z,19.2
2022-12-11T08:06:52.753Z,19.5
2022-12-11T08:11:47.367Z,19.7
2022-12-11T08:16:42.811Z,20
2022-12-11T08:21:38.299Z,20.4
2022-12-11T08:26:33.341Z,20.7
2022-12-11T08:31:28.170Z,20.7
2022-12-11T08:36:23.099Z,20.7
2022-12-11T08:41:17.816Z,20.7
2022-12-11T08:46:12.539Z,20.7
2022-12-11T08:51:07.294Z,20.6
2022-12-11T08:56:01.318Z,20.5
2022-12-11T09:00:55.990Z,20.4
2022-12-11T09:05:50.743Z,20.3
2022-12-11T09:10:45.503Z,20.3
2022-12-11T09:15:40.097Z,20.2
2022-12-11T09:20:34.993Z,20.2
2022-12-11T09:25:29.799Z,20.1
2022-12-11T09:30:24.455Z,20
2022-12-11T09:35:19.322Z,20
2022-12-11T09:40:14.072Z,19.8
2022-12-11T09:45:08.934Z,19.7
2022-12-11T09:50:00.241Z,16.6
2022-12-11T09:54:56.269Z,17
2022-12-11T09:59:52.198Z,17.7
2022-12-11T10:04:47.297Z,18.1
2022-12-11T10:09:42.277Z,18.4
2022-12-11T10:14:37.175Z,18.8
2022-12-11T10:19:32.522Z,19
2022-12-11T10:24:57.792Z,19.4
2022-12-11T10:29:22.796Z,19.7
2022-12-11T10:34:18.010Z,20.1
2022-12-11T10:39:13.062Z,20.4
2022-12-11T10:44:07.202Z,20.8
2022-12-11T10:49:02.244Z,20.9
2022-12-11T10:53:56.822Z,20.9
2022-12-11T10:58:51.413Z,20.8
2022-12-11T11:03:46.111Z,20.7
2022-12-11T11:08:40.864Z,20.7
2022-12-11T11:13:35.557Z,20.7
2022-12-11T11:18:30.517Z,20.6
2022-12-11T11:23:25.258Z,20.6
2022-12-11T11:28:19.915Z,20.4
2022-12-11T11:33:14.654Z,20.3
2022-12-11T11:38:08.845Z,20.1
2022-12-11T11:43:03.397Z,19.9
2022-12-11T11:47:57.435Z,19.8
2022-12-11T11:52:52.213Z,19.8
2022-12-11T11:57:46.475Z,19.6
2022-12-11T12:02:41.363Z,19.4
2022-12-11T12:07:35.966Z,19.5
2022-12-11T12:12:33.906Z,19.3
2022-12-11T12:17:25.539Z,19.2
2022-12-11T12:22:19.957Z,19
2022-12-11T12:27:43.577Z,19
2022-12-11T12:32:08.715Z,19.1
2022-12-11T12:37:03.943Z,19.3
2022-12-11T12:42:02.615Z,19.6
2022-12-11T12:46:54.196Z,19.9
2022-12-11T12:51:49.185Z,20.2
2022-12-11T12:56:44.368Z,20.4
2022-12-11T13:01:38.779Z,20.7
2022-12-11T13:06:33.555Z,21
2022-12-11T13:11:28.517Z,21
2022-12-11T13:16:22.862Z,21
2022-12-11T13:21:17.467Z,20.9
2022-12-11T13:26:12.054Z,20.8
2022-12-11T13:31:06.817Z,20.7
2022-12-11T13:36:01.373Z,20.7
2022-12-11T13:40:56.114Z,20.7
2022-12-11T13:45:50.915Z,20.5
2022-12-11T13:50:45.400Z,20.5
2022-12-11T13:55:40.081Z,20.3
2022-12-11T14:00:34.734Z,20.1
2022-12-11T14:05:29.172Z,20
2022-12-11T14:10:23.617Z,20
2022-12-11T14:15:18.390Z,19.7
2022-12-11T14:20:13.348Z,19.7
2022-12-11T14:25:10.720Z,19.6
2022-12-11T14:30:02.336Z,19.5
2022-12-11T14:34:56.894Z,19.4
2022-12-11T14:39:51.376Z,19.3
2022-12-11T14:44:46.126Z,19.2
2022-12-11T14:49:40.783Z,19.1
2022-12-11T14:54:35.313Z,19
2022-12-11T14:59:31.987Z,18.9
2022-12-11T15:04:24.401Z,18.8
2022-12-11T15:09:18.743Z,18.6
2022-12-11T15:14:13.511Z,18.6
2022-12-11T15:19:08.231Z,18.7
2022-12-11T15:24:03.467Z,18.9
2022-12-11T15:28:58.682Z,19.2
2022-12-11T15:33:53.616Z,19.5
2022-12-11T15:38:48.718Z,19.8
2022-12-11T15:43:43.840Z,20.2
2022-12-11T15:48:38.864Z,20.4
2022-12-11T15:53:33.657Z,20.6
2022-12-11T15:58:28.373Z,20.7
2022-12-11T16:03:23.282Z,20.7
2022-12-11T16:08:18.065Z,20.7
2022-12-11T16:13:12.853Z,20.7
2022-12-11T16:18:07.687Z,20.6
2022-12-11T16:23:02.189Z,20.5
2022-12-11T16:27:56.086Z,20.5
2022-12-11T16:32:50.668Z,20.4
2022-12-11T16:37:45.294Z,20.3
2022-12-11T16:42:40.026Z,20.2
2022-12-11T16:47:34.600Z,20.1
2022-12-11T16:52:29.131Z,20
2022-12-11T16:57:23.195Z,19.8
2022-12-11T17:02:17.719Z,19.6
2022-12-11T17:07:11.747Z,19.6
2022-12-11T17:12:06.694Z,19.5
2022-12-11T17:17:01.382Z,19.4
2022-12-11T17:21:55.931Z,19.3
2022-12-11T17:26:50.715Z,19.1
2022-12-11T17:31:45.444Z,19.1
2022-12-11T17:36:40.189Z,19
2022-12-11T17:41:34.863Z,18.9
2022-12-11T17:46:29.633Z,18.8
2022-12-11T17:51:23.471Z,18.7
2022-12-11T17:56:18.040Z,18.6
2022-12-11T18:01:12.768Z,18.8
2022-12-11T18:06:07.786Z,19
2022-12-11T18:11:02.978Z,19.2
2022-12-11T18:15:57.211Z,19.5
2022-12-11T18:20:52.334Z,19.8
2022-12-11T18:25:47.973Z,20.2
2022-12-11T18:30:43.254Z,20.5
2022-12-11T18:35:38.513Z,20.7
2022-12-11T18:40:33.212Z,20.8
2022-12-11T18:45:27.876Z,20.8
2022-12-11T18:50:22.238Z,20.8
2022-12-11T18:55:16.971Z,20.7
2022-12-11T19:00:11.821Z,20.7
2022-12-11T19:05:06.309Z,20.6
2022-12-11T19:10:00.918Z,20.5
2022-12-11T19:14:55.542Z,20.4
2022-12-11T19:19:50.298Z,20.3
2022-12-11T19:24:45.157Z,20.2
2022-12-11T19:29:39.679Z,20
2022-12-11T19:34:34.616Z,20
2022-12-11T19:39:29.417Z,19.9
2022-12-11T19:44:23.919Z,19.7
2022-12-11T19:49:18.482Z,19.7
2022-12-11T19:54:13.323Z,19.7
2022-12-11T19:59:08.123Z,19.8
2022-12-11T20:04:02.729Z,19.6
2022-12-11T20:08:57.394Z,19.5
2022-12-11T20:13:51.672Z,19.3
2022-12-11T20:18:46.553Z,19.3
2022-12-11T20:23:41.232Z,19.2
2022-12-11T20:28:35.651Z,19.1
2022-12-11T20:33:30.289Z,19
2022-12-11T20:38:28.760Z,19
2022-12-11T20:43:20.263Z,18.9
2022-12-11T20:48:14.989Z,18.8
2022-12-11T20:53:09.388Z,18.7
2022-12-11T20:58:03.969Z,18.6
2022-12-11T21:02:58.547Z,18.5
2022-12-11T21:07:53.168Z,18.4
2022-12-11T21:12:47.624Z,18.3
2022-12-11T21:17:42.177Z,18.2
2022-12-11T21:22:37.283Z,18.2
2022-12-11T21:27:31.745Z,18.2
2022-12-11T21:32:26.526Z,18.1
2022-12-11T21:37:21.138Z,17.8
2022-12-11T21:42:15.542Z,17.8
2022-12-11T21:47:09.966Z,17.7
2022-12-11T21:52:04.438Z,17.5
2022-12-11T21:56:58.878Z,17.5
2022-12-11T22:01:53.529Z,17.4
2022-12-11T22:06:48.418Z,17.4
2022-12-11T22:11:42.288Z,17.3
2022-12-11T22:16:36.138Z,17.1
2022-12-11T22:21:36.950Z,17.1
2022-12-11T22:26:25.468Z,17.1
2022-12-11T22:31:20.017Z,17
2022-12-11T22:36:14.614Z,16.9
2022-12-11T22:41:09.291Z,17
2022-12-11T22:46:04.054Z,16.9
2022-12-11T22:50:58.751Z,16.8
2022-12-11T22:55:53.095Z,16.7
2022-12-11T23:00:47.598Z,16.7
2022-12-11T23:05:41.583Z,16.7
2022-12-11T23:10:36.127Z,16.6
2022-12-11T23:15:30.388Z,16.6
2022-12-11T23:20:25.376Z,16.5
2022-12-11T23:25:20.008Z,16.5
2022-12-11T23:30:20.598Z,16.5
2022-12-11T23:35:09.514Z,16.4
2022-12-11T23:40:04.210Z,16.4
2022-12-11T23:44:58.929Z,16.3
2022-12-11T23:49:53.496Z,16.3
2022-12-11T23:54:48.270Z,16.3
2022-12-11T23:59:42.730Z,16.1
